Pittsburgh, Pennsylvania
Traffic Map
Current Weather Conditions
Pittsburgh, Pennsylvania
Clear
Clear
34°
Feels Like: 34°
Wind Chill: 34° Ceiling: Unl
Heat Index: 34° Visibility: 10mi
Dew Point: 23° Wind: 0mph
Humidity: 64% Direction: ° ()
Pressure: 30.42in Gusts: 0mph
Raw Report DataKAGC 210953Z 00000KT 10SM CLR 01/M05 A3042 RMK AO2 SLP315 T00111050
Traffic Incident Summary
Active as of:
Severity:
Category:
InformationThere was an issue retrieving the traffic information for this location. Please try a different location or try again shortly.
Advertisements